Terminal Aerodrome Forecast
Issued by NWS

Home | Current Version | Previous Version | Text Only | Print | Product List | Glossary On
Versions: 1 2 3 4 5 6 7 8 9 10 11 12 13 14 15 16 17
000
FTUS42 KMHX 031726
TAFISO
TAF
KISO 031726Z 0318/0418 05005KT P6SM -RA SCT015 BKN025
      TEMPO 0318/0320 SCT015
     FM040300 03003KT P6SM VCSH BKN015
     FM040700 03003KT 3SM -SHRA BR OVC008
     FM041400 03005KT P6SM VCTS SCT010 BKN025CB
      AMD LTD TO CLD VIS AND WIND=

USA.gov is the U.S. government's official web portal to all federal, state and local government web resources and services.